Terminal Aerodrome Forecast
Issued by NWS

Home | Current Version | Previous Version | Graphics & Text | Print | Product List | Glossary On
Versions: 1 2 3 4 5 6 7 8 9 10 11 12 13 14 15 16
000
FTUS43 KMPX 181100
TAFRNH
TAF
KRNH 181120Z 1812/1912 35009KT P6SM OVC025
     FM181800 36005KT P6SM SCT025
     FM182200 18004KT P6SM FEW250
     FM190900 16004KT P6SM BKN120=

USA.gov is the U.S. government's official web portal to all federal, state and local government web resources and services.